PIA123 OPPS-OPIS
Flight info
| Callsign | PIA123 |
|---|---|
| Flight time | N/A |
| Altitude | 13000 |
| Route | KALMI |
| Aircraft | A388/J-SADE2E3FGHIJ3J4J5M1RWXY/LB1D1 |
Departure
| Time | N/A |
|---|---|
| Airport | Bacha Khan International Airport (OPPS) |
Arrival
| Time | 2026-05-01 09:28 |
|---|---|
| Airport | Islamabad International Airport (OPIS) |
| Time | Latitude | Longitude | Altitude | Speed | Heading |
|---|---|---|---|---|---|
| 2026-05-01 09:23 | 33.56807 | 72.90175 | 7968 ft | 233 kts | 41° |
| 2026-05-01 09:24 | 33.58084 | 72.93554 | 10045 ft | 224 kts | 85° |
| 2026-05-01 09:24 | 33.57899 | 72.95599 | 10043 ft | 267 kts | 107° |
| 2026-05-01 09:24 | 33.56239 | 72.99970 | 10542 ft | 314 kts | 114° |
| 2026-05-01 09:25 | 33.53635 | 73.04240 | 10294 ft | 320 kts | 157° |
| 2026-05-01 09:25 | 33.50061 | 73.02987 | 9115 ft | 284 kts | 269° |
| 2026-05-01 09:26 | 33.50137 | 73.00676 | 7842 ft | 287 kts | 296° |
| 2026-05-01 09:26 | 33.51300 | 72.95811 | 4261 ft | 320 kts | 304° |
| 2026-05-01 09:26 | 33.52211 | 72.93294 | 2915 ft | 339 kts | 295° |
| 2026-05-01 09:27 | 33.53811 | 72.88556 | 2465 ft | 263 kts | 286° |
| 2026-05-01 09:27 | 33.54138 | 72.86671 | 2241 ft | 224 kts | 279° |
| 2026-05-01 09:27 | 33.54419 | 72.84973 | 1895 ft | 194 kts | 280° |
| 2026-05-01 09:28 | 33.54653 | 72.83526 | 1771 ft | 149 kts | 281° |
| 2026-05-01 09:28 | 33.54778 | 72.82762 | 1765 ft | 44 kts | 284° |
| 2026-05-01 09:28 | 33.54915 | 72.82487 | 1767 ft | 34 kts | 311° |
| 2026-05-01 09:28 | 33.55098 | 72.82460 | 1770 ft | 24 kts | 10° |
| 2026-05-01 09:29 | 33.55394 | 72.82523 | 1778 ft | 19 kts | 10° |
| 2026-05-01 09:29 | 33.55469 | 72.82591 | 1779 ft | 9 kts | 101° |
| 2026-05-01 09:30 | 33.55464 | 72.82748 | 1777 ft | 10 kts | 67° |
| 2026-05-01 09:30 | 33.55507 | 72.82823 | 1778 ft | 12 kts | 54° |
| 2026-05-01 09:30 | 33.55491 | 72.82947 | 1779 ft | 9 kts | 143° |
| 2026-05-01 09:31 | 33.55480 | 72.82957 | 1776 ft | 0 kts | 144° |